Time;durP1;ratioP1;P1;durP2;ratioP2;P2;SDS_P1;SDS_P2;PMS_P1;PMS_P2;Temp;Humidity;BMP_temperature;BMP_pressure;BME280_temperature;BME280_humidity;BME280_pressure;Samples;Min_cycle;Max_cycle;Signal;HPM_P1;HPM_P2
2023/01/02 00:01:27;;;;;;;2.22;0.95;;;;;;;;;;5087793;28;20028;-86
2023/01/02 00:03:55;;;;;;;1.00;0.80;;;;;;;;;;5102505;28;20410;-87
2023/01/02 00:06:21;;;;;;;1.17;1.08;;;;;;;;;;5105779;28;20016;-88
2023/01/02 00:08:46;;;;;;;3.90;1.60;;;;;;;;;;5084483;28;20046;-87
2023/01/02 00:11:12;;;;;;;1.42;0.85;;;;;;;;;;5092688;28;20069;-88
2023/01/02 00:13:37;;;;;;;0.70;0.70;;;;;;;;;;5085488;28;20073;-88
2023/01/02 00:16:03;;;;;;;0.52;0.52;;;;;;;;;;5084490;28;20027;-88
2023/01/02 00:18:28;;;;;;;1.63;1.17;;;;;;;;;;5088222;28;20372;-89
2023/01/02 00:20:53;;;;;;;1.00;0.77;;;;;;;;;;5092921;28;20478;-88
2023/01/02 00:23:19;;;;;;;2.97;0.95;;;;;;;;;;5106824;28;20016;-88
2023/01/02 00:25:47;;;;;;;1.80;0.65;;;;;;;;;;5103809;28;20050;-86
2023/01/02 00:28:12;;;;;;;9.05;1.35;;;;;;;;;;5074827;28;20042;-85
2023/01/02 00:30:38;;;;;;;0.60;0.60;;;;;;;;;;5104727;28;20036;-87
2023/01/02 00:33:03;;;;;;;2.40;1.85;;;;;;;;;;5082828;28;20034;-86
2023/01/02 00:35:30;;;;;;;1.08;1.00;;;;;;;;;;5103552;28;20110;-87
2023/01/02 00:37:55;;;;;;;2.60;1.25;;;;;;;;;;5080309;28;20070;-87
2023/01/02 00:40:21;;;;;;;0.82;0.65;;;;;;;;;;5102274;28;20036;-85
2023/01/02 00:42:46;;;;;;;3.72;1.40;;;;;;;;;;5106262;28;20031;-86
2023/01/02 00:45:11;;;;;;;2.15;0.98;;;;;;;;;;5085968;28;20038;-88
2023/01/02 00:47:37;;;;;;;1.50;1.20;;;;;;;;;;5082534;28;20016;-86
2023/01/02 00:50:03;;;;;;;0.63;0.63;;;;;;;;;;5105742;28;20030;-86
2023/01/02 00:52:28;;;;;;;2.22;1.27;;;;;;;;;;5107038;28;20107;-85
2023/01/02 00:54:54;;;;;;;0.85;0.77;;;;;;;;;;5089143;28;20077;-87
2023/01/02 00:57:19;;;;;;;1.77;1.05;;;;;;;;;;5089450;28;20111;-87
2023/01/02 00:59:44;;;;;;;2.15;1.15;;;;;;;;;;5099776;28;20027;-86
2023/01/02 01:02:10;;;;;;;3.35;1.13;;;;;;;;;;5088777;28;20032;-86
2023/01/02 01:04:36;;;;;;;1.40;1.23;;;;;;;;;;5087619;28;20036;-85
2023/01/02 01:07:02;;;;;;;1.20;1.10;;;;;;;;;;5089886;28;20024;-86
2023/01/02 01:09:27;;;;;;;1.70;1.45;;;;;;;;;;5109770;28;20028;-87
2023/01/02 01:11:53;;;;;;;1.10;1.00;;;;;;;;;;5087689;28;20023;-88
2023/01/02 01:14:19;;;;;;;1.63;1.13;;;;;;;;;;5106841;28;20024;-88
2023/01/02 01:16:44;;;;;;;1.42;0.93;;;;;;;;;;5107496;28;20398;-87
2023/01/02 01:19:10;;;;;;;1.23;1.13;;;;;;;;;;5109138;28;20110;-86
2023/01/02 01:21:35;;;;;;;2.17;1.17;;;;;;;;;;5093599;28;20051;-87
2023/01/02 01:24:00;;;;;;;0.82;0.77;;;;;;;;;;5106196;28;20098;-88
2023/01/02 01:26:26;;;;;;;1.95;1.10;;;;;;;;;;5105596;28;20451;-88
2023/01/02 01:28:53;;;;;;;1.63;1.00;;;;;;;;;;5090434;28;20129;-86
2023/01/02 01:31:19;;;;;;;0.95;0.90;;;;;;;;;;5083357;28;20111;-88
2023/01/02 01:33:45;;;;;;;1.63;0.82;;;;;;;;;;5102195;28;20024;-88
2023/01/02 01:36:16;;;;;;;1.10;1.00;;;;;;;;;;5085431;28;20106;-87
2023/01/02 01:38:42;;;;;;;1.23;0.82;;;;;;;;;;5108584;28;20024;-86
2023/01/02 01:41:12;;;;;;;2.00;1.80;;;;;;;;;;5109523;28;20028;-88
2023/01/02 01:43:50;;;;;;;1.10;0.88;;;;;;;;;;5106123;28;20153;-87
2023/01/02 01:46:15;;;;;;;1.42;1.27;;;;;;;;;;5110321;28;20032;-86
2023/01/02 01:48:41;;;;;;;1.05;1.02;;;;;;;;;;5101161;28;20020;-90
2023/01/02 01:51:09;;;;;;;1.85;1.48;;;;;;;;;;5097808;28;20027;-89
2023/01/02 01:53:36;;;;;;;1.92;1.48;;;;;;;;;;5093283;28;20023;-89
2023/01/02 01:56:05;;;;;;;1.95;1.23;;;;;;;;;;5091056;28;20081;-89
2023/01/02 01:58:38;;;;;;;0.80;0.77;;;;;;;;;;5094184;28;20073;-89
2023/01/02 02:01:04;;;;;;;2.95;1.25;;;;;;;;;;5091284;28;20454;-90
2023/01/02 02:03:32;;;;;;;5.25;2.00;;;;;;;;;;5090801;28;20054;-90
2023/01/02 02:05:59;;;;;;;2.13;1.80;;;;;;;;;;5089075;28;20027;-90
2023/01/02 02:08:30;;;;;;;3.47;2.55;;;;;;;;;;5092395;28;20020;-87
2023/01/02 02:10:58;;;;;;;2.47;1.98;;;;;;;;;;5087724;28;20027;-88
2023/01/02 02:13:23;;;;;;;1.75;1.48;;;;;;;;;;5107387;28;20073;-88
2023/01/02 02:16:10;;;;;;;0.85;0.70;;;;;;;;;;5104865;28;20023;-88
2023/01/02 02:18:41;;;;;;;0.80;0.77;;;;;;;;;;5089388;28;20023;-87
2023/01/02 02:21:33;;;;;;;3.85;2.78;;;;;;;;;;5085240;28;20376;-87
2023/01/02 02:24:07;;;;;;;1.08;0.98;;;;;;;;;;5101086;28;20494;-87
2023/01/02 02:26:38;;;;;;;1.05;0.68;;;;;;;;;;5090662;28;20027;-87
2023/01/02 02:29:19;;;;;;;0.50;0.50;;;;;;;;;;5100184;28;20040;-86
2023/01/02 02:32:01;;;;;;;0.63;0.63;;;;;;;;;;5083366;28;20066;-87
2023/01/02 02:34:32;;;;;;;2.90;0.77;;;;;;;;;;5091418;28;20494;-88
2023/01/02 02:37:11;;;;;;;0.63;0.63;;;;;;;;;;5086512;28;20046;-89
2023/01/02 02:40:00;;;;;;;0.63;0.63;;;;;;;;;;5087089;28;20028;-88
2023/01/02 02:42:35;;;;;;;1.80;0.93;;;;;;;;;;5080897;28;20058;-88
2023/01/02 02:45:37;;;;;;;0.45;0.45;;;;;;;;;;5109192;28;20038;-88
2023/01/02 02:48:16;;;;;;;1.17;0.50;;;;;;;;;;5061122;28;20028;-87
2023/01/02 02:50:47;;;;;;;0.20;0.20;;;;;;;;;;5084577;28;20417;-87
2023/01/02 02:53:24;;;;;;;1.63;1.30;;;;;;;;;;5109034;28;20497;-87
2023/01/02 02:55:54;;;;;;;1.73;1.45;;;;;;;;;;5085320;28;20059;-88
2023/01/02 02:58:22;;;;;;;3.75;2.35;;;;;;;;;;5099703;28;20024;-86
2023/01/02 03:00:48;;;;;;;1.52;0.98;;;;;;;;;;5098543;28;20206;-86
2023/01/02 03:03:22;;;;;;;0.52;0.40;;;;;;;;;;5101227;28;20478;-87
2023/01/02 03:06:21;;;;;;;0.70;0.70;;;;;;;;;;5087575;28;20015;-87
2023/01/02 03:09:02;;;;;;;1.40;0.70;;;;;;;;;;5037980;28;20038;-88
2023/01/02 03:11:48;;;;;;;0.55;0.55;;;;;;;;;;5105769;28;20024;-88
2023/01/02 03:14:26;;;;;;;1.83;0.93;;;;;;;;;;5086129;28;20382;-88
2023/01/02 03:17:26;;;;;;;1.35;0.98;;;;;;;;;;5104154;28;20077;-88
2023/01/02 03:19:59;;;;;;;0.75;0.75;;;;;;;;;;5088635;28;20117;-88
2023/01/02 03:22:33;;;;;;;1.45;1.15;;;;;;;;;;5084861;28;20436;-89
2023/01/02 03:24:58;;;;;;;0.60;0.60;;;;;;;;;;5096332;28;20027;-87
2023/01/02 03:27:28;;;;;;;0.60;0.60;;;;;;;;;;5088270;28;20483;-87
2023/01/02 03:29:59;;;;;;;1.17;0.82;;;;;;;;;;5087612;28;20051;-89
2023/01/02 03:32:31;;;;;;;2.22;1.50;;;;;;;;;;5090089;28;20039;-87
2023/01/02 03:35:06;;;;;;;1.52;1.02;;;;;;;;;;5086519;28;20079;-89
2023/01/02 03:37:34;;;;;;;3.78;1.80;;;;;;;;;;5087555;28;20069;-87
2023/01/02 03:40:06;;;;;;;1.23;0.95;;;;;;;;;;5100998;28;20437;-88
2023/01/02 03:42:37;;;;;;;1.50;1.10;;;;;;;;;;5087282;28;20491;-87
2023/01/02 03:45:16;;;;;;;1.40;0.98;;;;;;;;;;5093660;28;20042;-87
2023/01/02 03:47:51;;;;;;;0.90;0.80;;;;;;;;;;5083460;28;20586;-86
2023/01/02 03:50:28;;;;;;;0.60;0.60;;;;;;;;;;5103631;28;20024;-87
2023/01/02 03:52:54;;;;;;;0.50;0.50;;;;;;;;;;5086260;28;20702;-87
2023/01/02 03:55:23;;;;;;;0.80;0.80;;;;;;;;;;5078430;28;20027;-85
2023/01/02 03:57:59;;;;;;;1.13;1.10;;;;;;;;;;5105115;28;20046;-86
2023/01/02 04:00:33;;;;;;;0.60;0.60;;;;;;;;;;5101804;28;20103;-86
2023/01/02 04:03:07;;;;;;;1.13;0.85;;;;;;;;;;5101291;28;20035;-87
2023/01/02 04:05:49;;;;;;;1.65;0.98;;;;;;;;;;5102162;28;20076;-88
2023/01/02 04:11:32;;;;;;;1.48;0.98;;;;;;;;;;5108074;28;20027;-87
2023/01/02 04:14:02;;;;;;;1.25;1.15;;;;;;;;;;5079982;28;20028;-87
2023/01/02 04:16:32;;;;;;;0.82;0.60;;;;;;;;;;5102694;28;20096;-87
2023/01/02 04:19:02;;;;;;;1.55;1.00;;;;;;;;;;5079061;28;20460;-88
2023/01/02 04:21:31;;;;;;;1.30;0.70;;;;;;;;;;5101236;28;20051;-88
2023/01/02 04:24:20;;;;;;;1.55;1.45;;;;;;;;;;5074598;28;20049;-90
2023/01/02 04:27:13;;;;;;;2.30;1.38;;;;;;;;;;5082914;28;20919;-88
2023/01/02 04:29:39;;;;;;;2.05;1.27;;;;;;;;;;5094948;28;20069;-89
2023/01/02 04:32:13;;;;;;;0.50;0.50;;;;;;;;;;5102670;28;20030;-88
2023/01/02 04:34:40;;;;;;;2.40;0.95;;;;;;;;;;5077229;28;20039;-88
2023/01/02 04:37:06;;;;;;;2.70;0.98;;;;;;;;;;5083566;28;20032;-88
2023/01/02 04:39:33;;;;;;;1.52;1.15;;;;;;;;;;5086575;28;20494;-88
2023/01/02 04:41:58;;;;;;;0.60;0.60;;;;;;;;;;5078548;28;20058;-89
2023/01/02 04:44:24;;;;;;;1.20;1.10;;;;;;;;;;5099562;28;20036;-88
2023/01/02 04:46:49;;;;;;;0.88;0.77;;;;;;;;;;5086429;28;20054;-88
2023/01/02 04:49:14;;;;;;;1.15;0.77;;;;;;;;;;5097945;28;20020;-89
2023/01/02 04:51:40;;;;;;;0.38;0.38;;;;;;;;;;5079213;28;20072;-84
2023/01/02 04:54:10;;;;;;;0.80;0.80;;;;;;;;;;5079596;28;20069;-90
2023/01/02 04:56:36;;;;;;;5.63;1.25;;;;;;;;;;5104015;28;20124;-88
2023/01/02 04:59:01;;;;;;;0.55;0.50;;;;;;;;;;5082611;28;20056;-90
2023/01/02 05:01:27;;;;;;;0.75;0.75;;;;;;;;;;5076974;28;20024;-87
2023/01/02 05:03:52;;;;;;;0.65;0.65;;;;;;;;;;5081888;28;20126;-89
2023/01/02 05:06:18;;;;;;;2.92;0.88;;;;;;;;;;5076544;28;20031;-89
2023/01/02 05:08:43;;;;;;;0.98;0.70;;;;;;;;;;5081394;28;20020;-88
2023/01/02 05:11:14;;;;;;;1.05;1.00;;;;;;;;;;5124720;28;20031;-88
2023/01/02 05:13:40;;;;;;;1.48;0.95;;;;;;;;;;5094632;28;20031;-89
2023/01/02 05:16:07;;;;;;;0.70;0.68;;;;;;;;;;5078019;28;20092;-89
2023/01/02 05:18:32;;;;;;;1.38;1.27;;;;;;;;;;5087428;28;20032;-88
2023/01/02 05:21:03;;;;;;;0.50;0.50;;;;;;;;;;5100526;28;20055;-85
2023/01/02 05:23:47;;;;;;;0.90;0.65;;;;;;;;;;5094279;28;20027;-89
2023/01/02 05:26:13;;;;;;;13.23;2.17;;;;;;;;;;5101546;28;20031;-88
2023/01/02 05:28:39;;;;;;;3.33;1.00;;;;;;;;;;5086818;28;20032;-87
2023/01/02 05:31:05;;;;;;;0.60;0.60;;;;;;;;;;5097576;28;20032;-87
2023/01/02 05:33:30;;;;;;;0.43;0.43;;;;;;;;;;5099835;28;20398;-87
2023/01/02 05:35:56;;;;;;;2.83;0.93;;;;;;;;;;5105643;28;20038;-88
2023/01/02 05:38:21;;;;;;;0.65;0.65;;;;;;;;;;5097613;28;20051;-91
2023/01/02 05:40:47;;;;;;;0.98;0.50;;;;;;;;;;5108713;28;20069;-90
2023/01/02 05:43:12;;;;;;;0.50;0.50;;;;;;;;;;5083106;28;20024;-88
2023/01/02 05:45:37;;;;;;;1.75;0.82;;;;;;;;;;5087436;28;20535;-91
2023/01/02 05:48:03;;;;;;;1.23;0.95;;;;;;;;;;5088749;28;20487;-87
2023/01/02 05:50:29;;;;;;;2.03;1.52;;;;;;;;;;5088620;28;20132;-88
2023/01/02 05:52:55;;;;;;;1.52;1.40;;;;;;;;;;5081899;28;20113;-88
2023/01/02 05:55:20;;;;;;;1.52;1.17;;;;;;;;;;5102566;28;20047;-87
2023/01/02 05:57:46;;;;;;;2.38;1.02;;;;;;;;;;5100198;28;20069;-92
2023/01/02 06:00:12;;;;;;;1.77;1.25;;;;;;;;;;5122840;27;20115;-87
2023/01/02 06:02:39;;;;;;;1.17;0.95;;;;;;;;;;5080644;28;20028;-88
2023/01/02 06:05:05;;;;;;;1.33;0.85;;;;;;;;;;5104138;28;20031;-89
2023/01/02 06:07:31;;;;;;;3.50;2.03;;;;;;;;;;5089165;28;20023;-86
2023/01/02 06:09:56;;;;;;;2.03;1.75;;;;;;;;;;5103811;28;20077;-86
2023/01/02 06:12:21;;;;;;;4.40;2.30;;;;;;;;;;5098004;28;20028;-89
2023/01/02 06:14:47;;;;;;;1.23;1.13;;;;;;;;;;5096729;28;20029;-88
2023/01/02 06:17:12;;;;;;;2.00;1.43;;;;;;;;;;5096188;28;20102;-86
2023/01/02 06:19:43;;;;;;;1.52;1.08;;;;;;;;;;5102994;28;20062;-87
2023/01/02 06:22:09;;;;;;;3.65;2.40;;;;;;;;;;5116146;27;20531;-87
2023/01/02 06:24:34;;;;;;;1.60;1.33;;;;;;;;;;5103295;28;20028;-88
2023/01/02 06:26:59;;;;;;;1.90;1.67;;;;;;;;;;5105939;28;20031;-87
2023/01/02 06:29:25;;;;;;;4.25;2.65;;;;;;;;;;5086243;28;20417;-87
2023/01/02 06:31:50;;;;;;;13.10;4.82;;;;;;;;;;5079115;28;20063;-87
2023/01/02 06:34:16;;;;;;;5.85;2.90;;;;;;;;;;5102978;28;20726;-87
2023/01/02 06:36:42;;;;;;;4.53;2.55;;;;;;;;;;5106442;28;20024;-87
2023/01/02 06:39:07;;;;;;;4.35;3.20;;;;;;;;;;5085228;28;20027;-87
2023/01/02 06:41:32;;;;;;;2.60;1.88;;;;;;;;;;5086027;28;20044;-89
2023/01/02 06:43:58;;;;;;;2.70;2.38;;;;;;;;;;5086129;28;20024;-87
2023/01/02 06:46:23;;;;;;;3.08;2.10;;;;;;;;;;5101580;28;20031;-87
2023/01/02 06:48:50;;;;;;;3.97;2.30;;;;;;;;;;5086620;28;20030;-87
2023/01/02 06:51:18;;;;;;;2.88;1.67;;;;;;;;;;5080207;28;20043;-87
2023/01/02 06:53:44;;;;;;;1.20;1.10;;;;;;;;;;5078880;28;20034;-87
2023/01/02 06:56:10;;;;;;;2.42;2.15;;;;;;;;;;5082124;28;20024;-88
2023/01/02 06:58:37;;;;;;;3.92;3.35;;;;;;;;;;5083212;28;20019;-87
2023/01/02 07:01:29;;;;;;;4.60;2.53;;;;;;;;;;5083985;28;20082;-88
2023/01/02 07:03:54;;;;;;;5.63;3.88;;;;;;;;;;5077020;28;20043;-87
2023/01/02 07:06:21;;;;;;;6.38;3.25;;;;;;;;;;5081265;28;20031;-87
2023/01/02 07:08:47;;;;;;;6.45;3.63;;;;;;;;;;5083713;28;20077;-87
2023/01/02 07:11:22;;;;;;;4.07;3.58;;;;;;;;;;5080147;28;20485;-88
2023/01/02 07:13:49;;;;;;;4.32;3.90;;;;;;;;;;5083162;28;20023;-88
2023/01/02 07:16:16;;;;;;;3.22;2.53;;;;;;;;;;5101205;28;20031;-87
2023/01/02 07:18:42;;;;;;;4.90;3.50;;;;;;;;;;5089315;28;20024;-90
2023/01/02 07:21:09;;;;;;;4.25;3.03;;;;;;;;;;5107038;28;20043;-86
2023/01/02 07:23:35;;;;;;;7.05;3.95;;;;;;;;;;5098557;28;20464;-88
2023/01/02 07:26:03;;;;;;;7.72;4.38;;;;;;;;;;5084383;28;20028;-88
2023/01/02 07:28:28;;;;;;;12.70;6.80;;;;;;;;;;5080542;28;20036;-88
2023/01/02 07:31:15;;;;;;;11.32;7.25;;;;;;;;;;5079952;28;20078;-88
2023/01/02 07:33:41;;;;;;;16.80;8.57;;;;;;;;;;5078693;28;20077;-88
2023/01/02 07:36:10;;;;;;;11.70;7.88;;;;;;;;;;5077118;28;20071;-87
2023/01/02 07:38:37;;;;;;;8.55;5.97;;;;;;;;;;5082342;28;20035;-88
2023/01/02 07:41:02;;;;;;;6.80;5.35;;;;;;;;;;5081228;28;20024;-89
2023/01/02 07:43:28;;;;;;;14.07;8.95;;;;;;;;;;5080292;28;20020;-88
2023/01/02 07:45:54;;;;;;;11.40;8.30;;;;;;;;;;5079126;28;20110;-89
2023/01/02 07:48:19;;;;;;;13.50;9.05;;;;;;;;;;5080584;28;20031;-88
2023/01/02 07:50:45;;;;;;;15.30;8.88;;;;;;;;;;5081244;28;20035;-88
2023/01/02 07:53:11;;;;;;;9.82;6.70;;;;;;;;;;5083452;28;20379;-90
2023/01/02 07:55:36;;;;;;;16.02;8.73;;;;;;;;;;5079395;28;20032;-88
2023/01/02 07:58:01;;;;;;;12.02;7.40;;;;;;;;;;5075332;28;20027;-88
2023/01/02 08:00:27;;;;;;;15.30;7.97;;;;;;;;;;5078243;28;20062;-88
2023/01/02 08:02:53;;;;;;;18.10;8.70;;;;;;;;;;5083024;28;20028;-87
2023/01/02 08:05:21;;;;;;;13.27;8.07;;;;;;;;;;5079546;28;20081;-88
2023/01/02 08:07:46;;;;;;;18.05;9.85;;;;;;;;;;5077600;28;20077;-86
2023/01/02 08:10:12;;;;;;;14.18;8.50;;;;;;;;;;5080152;28;20467;-87
2023/01/02 08:12:38;;;;;;;12.90;9.23;;;;;;;;;;5081555;28;20085;-87
2023/01/02 08:15:05;;;;;;;17.92;11.07;;;;;;;;;;5081030;28;20089;-88
2023/01/02 08:17:31;;;;;;;17.80;10.15;;;;;;;;;;5084096;28;20111;-88
2023/01/02 08:19:57;;;;;;;14.23;8.95;;;;;;;;;;5079959;28;20024;-88
2023/01/02 08:22:23;;;;;;;11.20;7.43;;;;;;;;;;5075808;28;20031;-89
2023/01/02 08:24:48;;;;;;;16.95;7.90;;;;;;;;;;5078709;28;20392;-87
2023/01/02 08:27:14;;;;;;;13.35;9.10;;;;;;;;;;5085402;28;20042;-88
2023/01/02 08:29:40;;;;;;;13.18;9.27;;;;;;;;;;5097422;28;20098;-87
2023/01/02 08:32:05;;;;;;;17.52;9.90;;;;;;;;;;5101064;28;20039;-87
2023/01/02 08:34:33;;;;;;;18.48;10.90;;;;;;;;;;5099192;28;20028;-88
2023/01/02 08:36:58;;;;;;;12.25;9.57;;;;;;;;;;5101609;28;20093;-87
2023/01/02 08:39:24;;;;;;;14.43;8.57;;;;;;;;;;5102169;28;20417;-90
2023/01/02 08:41:49;;;;;;;14.20;9.30;;;;;;;;;;5083419;28;20027;-87
2023/01/02 08:44:15;;;;;;;18.30;11.45;;;;;;;;;;5096087;28;20076;-88
2023/01/02 08:46:40;;;;;;;17.63;11.43;;;;;;;;;;5104155;28;20059;-89
2023/01/02 08:49:06;;;;;;;21.50;10.73;;;;;;;;;;5084930;28;20519;-88
2023/01/02 08:51:31;;;;;;;15.45;10.98;;;;;;;;;;5084939;28;20375;-88
2023/01/02 08:53:56;;;;;;;19.08;11.18;;;;;;;;;;5100213;28;20357;-88
2023/01/02 08:56:28;;;;;;;17.08;11.75;;;;;;;;;;5082269;28;20024;-90
2023/01/02 08:58:55;;;;;;;26.02;17.63;;;;;;;;;;5098242;28;20028;-86
2023/01/02 09:01:23;;;;;;;16.10;10.35;;;;;;;;;;5099272;28;20028;-88
2023/01/02 09:03:49;;;;;;;19.17;11.82;;;;;;;;;;5086778;28;20024;-88
2023/01/02 09:06:15;;;;;;;21.23;11.68;;;;;;;;;;5090093;28;20020;-89
2023/01/02 09:08:40;;;;;;;18.17;11.13;;;;;;;;;;5073753;28;20032;-88
2023/01/02 09:11:14;;;;;;;18.30;11.82;;;;;;;;;;5107222;28;20023;-86
2023/01/02 09:13:40;;;;;;;16.55;9.75;;;;;;;;;;5085521;28;20477;-86
2023/01/02 09:16:06;;;;;;;19.60;10.52;;;;;;;;;;5083618;28;20055;-86
2023/01/02 09:18:32;;;;;;;17.88;10.52;;;;;;;;;;5108897;28;20028;-85
2023/01/02 09:20:57;;;;;;;12.70;8.98;;;;;;;;;;5081918;28;20043;-85
2023/01/02 09:23:23;;;;;;;17.05;10.77;;;;;;;;;;5083703;28;20430;-87
2023/01/02 09:25:48;;;;;;;16.02;10.68;;;;;;;;;;5085343;28;20533;-87
2023/01/02 09:28:13;;;;;;;14.65;9.73;;;;;;;;;;5105400;28;20055;-86
2023/01/02 09:30:39;;;;;;;21.00;11.13;;;;;;;;;;5085817;28;20128;-87
2023/01/02 09:33:04;;;;;;;15.80;11.05;;;;;;;;;;5103399;28;20030;-89
2023/01/02 09:35:30;;;;;;;12.65;8.02;;;;;;;;;;5088010;28;20384;-86
2023/01/02 09:37:55;;;;;;;18.75;9.43;;;;;;;;;;5098200;28;20020;-87
2023/01/02 09:40:21;;;;;;;17.00;8.18;;;;;;;;;;5082594;28;20055;-89
2023/01/02 09:42:49;;;;;;;16.48;11.00;;;;;;;;;;5081456;28;20095;-87
2023/01/02 09:45:15;;;;;;;24.65;10.27;;;;;;;;;;5084958;28;20019;-87
2023/01/02 09:47:44;;;;;;;23.00;9.18;;;;;;;;;;5087224;28;20031;-87
2023/01/02 09:50:13;;;;;;;13.68;9.43;;;;;;;;;;5102290;28;20095;-87
2023/01/02 09:52:41;;;;;;;;;;;;;;;;;;5100728;28;20070;-87
2023/01/02 09:55:34;;;;;;;14.23;8.20;;;;;;;;;;5109231;28;19932;-87
2023/01/02 09:58:14;;;;;;;13.38;8.85;;;;;;;;;;5081618;28;20031;-86
2023/01/02 10:00:40;;;;;;;;;;;;;;;;;;5087446;28;20035;-88
2023/01/02 10:03:27;;;;;;;14.60;9.13;;;;;;;;;;5089256;28;19912;-87
2023/01/02 10:06:14;;;;;;;17.42;9.98;;;;;;;;;;5086817;28;20024;-87
2023/01/02 10:08:54;;;;;;;19.35;9.50;;;;;;;;;;5096682;28;20024;-89
2023/01/02 10:11:22;;;;;;;;;;;;;;;;;;5087616;28;20125;-87
2023/01/02 10:14:05;;;;;;;11.63;7.05;;;;;;;;;;5120782;27;19919;-86
2023/01/02 10:16:38;;;;;;;14.43;9.15;;;;;;;;;;5100876;28;20429;-87
2023/01/02 10:19:08;;;;;;;16.88;9.80;;;;;;;;;;5103130;28;20024;-86
2023/01/02 10:21:37;;;;;;;18.05;11.05;;;;;;;;;;5081514;28;20487;-85
2023/01/02 10:24:08;;;;;;;13.75;9.32;;;;;;;;;;5105506;28;20031;-87
2023/01/02 10:26:41;;;;;;;21.27;10.05;;;;;;;;;;5085432;28;20106;-85
2023/01/02 10:29:13;;;;;;;15.38;9.63;;;;;;;;;;5106677;28;20447;-86
2023/01/02 10:31:54;;;;;;;18.17;9.82;;;;;;;;;;5101066;28;20028;-87
2023/01/02 10:34:22;;;;;;;12.73;7.38;;;;;;;;;;5107370;28;20031;-87
2023/01/02 10:36:49;;;;;;;12.05;7.57;;;;;;;;;;5102200;28;20024;-87
2023/01/02 10:39:28;;;;;;;13.77;9.38;;;;;;;;;;5098892;28;20019;-87
2023/01/02 10:41:57;;;;;;;14.27;8.27;;;;;;;;;;5098809;28;20031;-87
2023/01/02 10:44:37;;;;;;;12.50;7.90;;;;;;;;;;5099341;28;20107;-87
2023/01/02 10:47:11;;;;;;;12.10;8.48;;;;;;;;;;5104784;28;20081;-86
2023/01/02 10:49:38;;;;;;;14.70;8.40;;;;;;;;;;5080532;28;20049;-87
2023/01/02 10:52:17;;;;;;;11.93;7.80;;;;;;;;;;5099140;28;20029;-86
2023/01/02 10:54:54;;;;;;;9.90;6.95;;;;;;;;;;5078540;28;20073;-85
2023/01/02 10:57:45;;;;;;;18.25;9.38;;;;;;;;;;5087155;28;20676;-85
2023/01/02 11:00:33;;;;;;;9.95;6.75;;;;;;;;;;5079480;28;20092;-84
2023/01/02 11:03:05;;;;;;;10.45;6.68;;;;;;;;;;5113643;27;20019;-86
2023/01/02 11:05:31;;;;;;;10.30;7.38;;;;;;;;;;5083631;28;20069;-86
2023/01/02 11:07:57;;;;;;;9.35;6.45;;;;;;;;;;5106345;28;20091;-88
2023/01/02 11:10:37;;;;;;;16.35;7.18;;;;;;;;;;5099075;28;20039;-85
2023/01/02 11:13:09;;;;;;;13.15;7.15;;;;;;;;;;5085205;28;20076;-87
2023/01/02 11:15:43;;;;;;;8.88;5.90;;;;;;;;;;5080348;28;20024;-86
2023/01/02 11:18:16;;;;;;;10.13;6.45;;;;;;;;;;5091900;28;20459;-88
2023/01/02 11:20:49;;;;;;;13.27;6.82;;;;;;;;;;5078474;28;20028;-87
2023/01/02 11:23:15;;;;;;;15.48;7.45;;;;;;;;;;5081197;28;20031;-87
2023/01/02 11:25:42;;;;;;;12.02;7.22;;;;;;;;;;5083621;28;20108;-86
2023/01/02 11:28:18;;;;;;;14.23;7.28;;;;;;;;;;5082314;28;20510;-87
2023/01/02 11:30:52;;;;;;;13.40;8.35;;;;;;;;;;5080961;28;20028;-85
2023/01/02 11:33:23;;;;;;;10.75;8.25;;;;;;;;;;5077252;28;20023;-84
2023/01/02 11:36:04;;;;;;;13.80;8.00;;;;;;;;;;5082492;28;20019;-87
2023/01/02 11:38:49;;;;;;;10.38;6.40;;;;;;;;;;5081783;28;20012;-86
2023/01/02 11:41:23;;;;;;;9.68;5.85;;;;;;;;;;5078430;28;20097;-88
2023/01/02 11:43:55;;;;;;;15.57;7.75;;;;;;;;;;5075188;28;20031;-88
2023/01/02 11:46:31;;;;;;;11.95;7.03;;;;;;;;;;5100824;28;20068;-90
2023/01/02 11:49:21;;;;;;;10.13;7.20;;;;;;;;;;5091797;28;20035;-90
2023/01/02 11:51:57;;;;;;;12.65;8.35;;;;;;;;;;5072304;28;20138;-87
2023/01/02 11:54:48;;;;;;;22.48;8.20;;;;;;;;;;5082092;28;20019;-87
2023/01/02 11:57:29;;;;;;;11.27;6.47;;;;;;;;;;5098964;28;20023;-89
2023/01/02 11:59:57;;;;;;;12.32;7.68;;;;;;;;;;5086034;28;20019;-90
2023/01/02 12:02:35;;;;;;;13.23;7.00;;;;;;;;;;5107133;28;20051;-89
2023/01/02 12:05:01;;;;;;;16.67;8.40;;;;;;;;;;5077401;28;20027;-87
2023/01/02 12:07:44;;;;;;;12.30;9.02;;;;;;;;;;5096244;28;20020;-86
2023/01/02 12:10:34;;;;;;;14.48;6.97;;;;;;;;;;5100172;28;20059;-88
2023/01/02 12:13:30;;;;;;;12.38;7.25;;;;;;;;;;5099080;28;20028;-88
2023/01/02 12:16:13;;;;;;;13.57;8.90;;;;;;;;;;5076120;28;20437;-90
2023/01/02 12:18:56;;;;;;;14.35;7.60;;;;;;;;;;5114789;27;20108;-89
2023/01/02 12:21:24;;;;;;;11.52;7.43;;;;;;;;;;5095258;28;20031;-88
2023/01/02 12:24:29;;;;;;;13.45;7.95;;;;;;;;;;5082707;28;20421;-89
2023/01/02 12:27:14;;;;;;;14.05;8.57;;;;;;;;;;5097636;28;20027;-88
2023/01/02 12:29:57;;;;;;;16.30;10.02;;;;;;;;;;5075725;28;20377;-88
2023/01/02 12:32:44;;;;;;;15.82;10.20;;;;;;;;;;5081530;28;20475;-87
2023/01/02 12:35:29;;;;;;;12.10;8.00;;;;;;;;;;5073460;28;20039;-89
2023/01/02 12:37:57;;;;;;;14.90;8.82;;;;;;;;;;5098301;28;20036;-89
2023/01/02 12:40:28;;;;;;;15.40;7.93;;;;;;;;;;5082850;28;20475;-90
2023/01/02 12:43:16;;;;;;;13.35;7.80;;;;;;;;;;5097376;28;20021;-89
2023/01/02 12:46:09;;;;;;;14.80;8.38;;;;;;;;;;5086450;28;20123;-89
2023/01/02 12:48:52;;;;;;;11.55;7.53;;;;;;;;;;5106311;28;20020;-90
2023/01/02 12:51:41;;;;;;;6.82;4.80;;;;;;;;;;5089601;28;20020;-89
2023/01/02 12:54:10;;;;;;;9.57;5.78;;;;;;;;;;5103297;28;20043;-91
2023/01/02 12:56:50;;;;;;;10.70;6.10;;;;;;;;;;5093191;28;20038;-88
2023/01/02 12:59:34;;;;;;;;;;;;;;;;;;5109044;28;20020;-90
2023/01/02 13:02:21;;;;;;;4.25;3.22;;;;;;;;;;5115133;27;19919;-90
2023/01/02 13:04:54;;;;;;;3.85;2.22;;;;;;;;;;5102946;28;20384;-89
2023/01/02 13:07:38;;;;;;;3.60;3.25;;;;;;;;;;5091987;28;20032;-89
2023/01/02 13:10:06;;;;;;;5.07;2.42;;;;;;;;;;5088146;28;20035;-91
2023/01/02 13:12:34;;;;;;;4.22;2.47;;;;;;;;;;5081457;28;20635;-89
2023/01/02 13:15:08;;;;;;;4.03;2.10;;;;;;;;;;5088923;28;20028;-88
2023/01/02 13:17:49;;;;;;;4.07;1.73;;;;;;;;;;5106748;28;20472;-87
2023/01/02 13:20:26;;;;;;;4.45;2.38;;;;;;;;;;5107266;28;20429;-87
2023/01/02 13:23:10;;;;;;;3.67;2.72;;;;;;;;;;5106329;28;20015;-88
2023/01/02 13:25:43;;;;;;;3.95;2.80;;;;;;;;;;5082002;28;20083;-90
2023/01/02 13:28:12;;;;;;;5.13;2.42;;;;;;;;;;5086870;28;20044;-87
2023/01/02 13:30:45;;;;;;;3.08;2.20;;;;;;;;;;5112267;28;20424;-87
2023/01/02 13:33:30;;;;;;;4.78;2.85;;;;;;;;;;5101168;28;20088;-89
2023/01/02 13:35:59;;;;;;;4.00;2.65;;;;;;;;;;5090859;28;20490;-88
2023/01/02 13:38:28;;;;;;;3.83;2.33;;;;;;;;;;5105214;28;20487;-87
2023/01/02 13:40:55;;;;;;;2.67;2.13;;;;;;;;;;5083879;28;20279;-88
2023/01/02 13:43:29;;;;;;;2.47;1.20;;;;;;;;;;5085039;28;20031;-88
2023/01/02 13:45:56;;;;;;;3.33;2.05;;;;;;;;;;5086571;28;20023;-88
2023/01/02 13:48:31;;;;;;;6.80;1.75;;;;;;;;;;5081250;28;20024;-87
2023/01/02 13:51:03;;;;;;;3.42;2.53;;;;;;;;;;5103033;28;20047;-86
2023/01/02 13:53:41;;;;;;;6.97;4.03;;;;;;;;;;5106101;28;20094;-90
2023/01/02 13:56:15;;;;;;;6.43;4.07;;;;;;;;;;5108296;28;20106;-88
2023/01/02 13:58:46;;;;;;;13.10;6.13;;;;;;;;;;5086573;28;20026;-87
2023/01/02 14:01:22;;;;;;;4.28;3.25;;;;;;;;;;5084976;28;20399;-89
2023/01/02 14:03:49;;;;;;;4.13;2.40;;;;;;;;;;5077848;28;20058;-88
2023/01/02 14:06:34;;;;;;;2.35;1.40;;;;;;;;;;5088347;28;20028;-86
2023/01/02 14:09:02;;;;;;;1.17;1.05;;;;;;;;;;5108060;28;20062;-87
2023/01/02 14:11:31;;;;;;;1.38;1.15;;;;;;;;;;5089338;28;20028;-87
2023/01/02 14:13:57;;;;;;;3.05;1.73;;;;;;;;;;5105901;28;20103;-88
2023/01/02 14:16:50;;;;;;;3.38;1.73;;;;;;;;;;5107273;28;20076;-88
2023/01/02 14:19:22;;;;;;;3.28;1.05;;;;;;;;;;5100933;28;20024;-88
2023/01/02 14:21:52;;;;;;;0.77;0.65;;;;;;;;;;5085876;28;20047;-89
2023/01/02 14:24:23;;;;;;;;;;;;;;;;;;5081810;28;20030;-88
2023/01/02 14:27:18;;;;;;;6.55;1.80;;;;;;;;;;5112742;27;19926;-87
2023/01/02 14:30:07;;;;;;;1.35;0.90;;;;;;;;;;5083801;28;20047;-88
2023/01/02 14:32:43;;;;;;;0.80;0.63;;;;;;;;;;5082147;28;20429;-90
2023/01/02 14:35:11;;;;;;;3.00;1.15;;;;;;;;;;5077794;28;20082;-90
2023/01/02 14:37:43;;;;;;;2.88;1.83;;;;;;;;;;5082542;28;20081;-90
2023/01/02 14:40:21;;;;;;;2.88;2.15;;;;;;;;;;5102879;28;20034;-89
2023/01/02 14:46:13;;;;;;;1.70;1.25;;;;;;;;;;5104205;28;20039;-88
2023/01/02 14:49:02;;;;;;;1.15;1.10;;;;;;;;;;5104387;28;20103;-86
2023/01/02 14:51:41;;;;;;;1.15;1.00;;;;;;;;;;5097569;28;20032;-88
2023/01/02 14:54:12;;;;;;;0.83;0.70;;;;;;;;;;5102978;28;20028;-89
2023/01/02 14:56:41;;;;;;;1.42;0.82;;;;;;;;;;5102784;28;20839;-90
2023/01/02 14:59:17;;;;;;;2.00;1.08;;;;;;;;;;5088824;28;20114;-88
2023/01/02 15:01:47;;;;;;;1.05;0.95;;;;;;;;;;5095480;28;20111;-89
2023/01/02 15:04:24;;;;;;;1.48;1.02;;;;;;;;;;5101428;28;20027;-88
2023/01/02 15:07:13;;;;;;;2.03;1.08;;;;;;;;;;5102432;28;20106;-90
2023/01/02 15:09:54;;;;;;;1.63;1.42;;;;;;;;;;5087716;28;20099;-88